createdAt,value
2018-12-17T00:00:37.714Z,40.23
2018-12-17T00:03:13.076Z,39.20
2018-12-17T00:05:47.559Z,42.55
2018-12-17T00:11:05.615Z,40.78
2018-12-17T00:13:36.961Z,34.40
2018-12-17T00:16:13.937Z,34.88
2018-12-17T00:18:45.873Z,36.93
2018-12-17T00:21:19.869Z,34.23
2018-12-17T00:24:02.281Z,34.35
2018-12-17T00:26:33.109Z,32.67
2018-12-17T00:29:14.121Z,33.30
2018-12-17T00:31:46.453Z,30.75
2018-12-17T00:34:14.561Z,32.28
2018-12-17T00:36:42.866Z,34.83
2018-12-17T00:39:10.949Z,30.95
2018-12-17T00:41:39.066Z,32.48
2018-12-17T00:44:07.283Z,28.87
2018-12-17T00:46:35.374Z,30.80
2018-12-17T00:49:03.542Z,31.57
2018-12-17T00:51:31.872Z,31.45
2018-12-17T00:54:00.089Z,30.90
2018-12-17T00:56:28.165Z,29.70
2018-12-17T00:58:56.340Z,31.25
2018-12-17T01:01:24.524Z,35.55
2018-12-17T01:03:52.623Z,28.70
2018-12-17T01:06:20.801Z,28.90
2018-12-17T01:08:48.918Z,31.60
2018-12-17T01:11:17.097Z,32.48
2018-12-17T01:13:45.197Z,30.80
2018-12-17T01:16:13.293Z,30.60
2018-12-17T01:18:41.394Z,29.35
2018-12-17T01:21:09.550Z,29.72
2018-12-17T01:23:37.675Z,32.48
2018-12-17T01:26:05.866Z,31.73
2018-12-17T01:28:34.650Z,32.73
2018-12-17T01:31:02.858Z,31.15
2018-12-17T01:33:30.964Z,31.33
2018-12-17T01:35:59.199Z,33.13
2018-12-17T01:38:27.342Z,29.60
2018-12-17T01:40:55.429Z,31.52
2018-12-17T01:43:23.542Z,30.00
2018-12-17T01:45:51.645Z,29.70
2018-12-17T01:48:19.796Z,27.73
2018-12-17T01:50:47.979Z,29.18
2018-12-17T01:53:16.101Z,32.23
2018-12-17T01:55:44.191Z,30.00
2018-12-17T01:58:12.409Z,32.08
2018-12-17T02:00:40.596Z,30.48
2018-12-17T02:03:08.692Z,31.33
2018-12-17T02:05:36.813Z,31.27
2018-12-17T02:08:04.946Z,31.17
2018-12-17T02:10:33.160Z,33.48
2018-12-17T02:13:01.241Z,29.85
2018-12-17T02:15:29.409Z,29.00
2018-12-17T02:17:57.497Z,29.77
2018-12-17T02:20:25.685Z,31.00
2018-12-17T02:22:53.793Z,30.92
2018-12-17T02:25:21.890Z,29.32
2018-12-17T02:27:50.042Z,29.55
2018-12-17T02:30:18.220Z,31.23
2018-12-17T02:32:46.302Z,31.77
2018-12-17T02:35:14.464Z,31.73
2018-12-17T02:37:42.645Z,30.15
2018-12-17T02:40:10.763Z,28.45
2018-12-17T02:42:38.854Z,28.62
2018-12-17T02:45:07.030Z,30.57
2018-12-17T02:47:35.137Z,29.80
2018-12-17T02:50:03.445Z,28.40
2018-12-17T02:52:31.580Z,27.98
2018-12-17T02:54:59.823Z,29.55
2018-12-17T02:57:28.032Z,30.48
2018-12-17T02:59:56.214Z,29.18
2018-12-17T03:02:24.353Z,31.37
2018-12-17T03:04:52.526Z,29.37
2018-12-17T03:07:20.690Z,27.10
2018-12-17T03:09:48.810Z,30.45
2018-12-17T03:12:16.874Z,26.57
2018-12-17T03:14:44.974Z,25.48
2018-12-17T03:17:13.097Z,32.08
2018-12-17T03:19:41.204Z,33.98
2018-12-17T03:22:09.307Z,29.27
2018-12-17T03:24:37.394Z,27.95
2018-12-17T03:27:05.558Z,31.62
2018-12-17T03:29:33.930Z,30.12
2018-12-17T03:32:02.251Z,30.40
2018-12-17T03:34:30.413Z,29.75
2018-12-17T03:36:58.508Z,29.57
2018-12-17T03:39:26.586Z,28.38
2018-12-17T03:41:54.786Z,29.90
2018-12-17T03:44:22.923Z,31.48
2018-12-17T03:46:51.005Z,30.40
2018-12-17T03:49:19.201Z,27.20
2018-12-17T03:51:47.393Z,31.23
2018-12-17T03:54:15.516Z,30.32
2018-12-17T03:56:43.668Z,27.05
2018-12-17T03:59:11.747Z,28.80
2018-12-17T04:01:39.937Z,27.77
2018-12-17T04:04:08.120Z,28.90
2018-12-17T04:06:36.218Z,30.17
2018-12-17T04:09:05.934Z,27.37
2018-12-17T04:11:34.029Z,32.17
2018-12-17T04:14:02.164Z,29.60
2018-12-17T04:16:30.260Z,26.35
2018-12-17T04:18:58.377Z,25.75
2018-12-17T04:21:26.475Z,29.15
2018-12-17T04:23:54.609Z,29.37
2018-12-17T04:26:22.705Z,30.43
2018-12-17T04:28:50.868Z,28.90
2018-12-17T04:31:19.041Z,31.25
2018-12-17T04:33:47.133Z,28.15
2018-12-17T04:36:15.325Z,29.00
2018-12-17T04:38:43.422Z,30.17
2018-12-17T04:41:11.570Z,32.90
2018-12-17T04:43:39.741Z,30.95
2018-12-17T04:46:07.906Z,29.07
2018-12-17T04:48:36.246Z,30.30
2018-12-17T04:51:05.693Z,32.15
2018-12-17T04:53:33.777Z,29.80
2018-12-17T04:56:01.921Z,32.53
2018-12-17T04:58:30.117Z,34.83
2018-12-17T05:00:58.262Z,31.68
2018-12-17T05:03:26.354Z,30.57
2018-12-17T05:05:54.574Z,32.75
2018-12-17T05:08:22.751Z,28.85
2018-12-17T05:10:50.857Z,29.70
2018-12-17T05:13:18.934Z,30.27
2018-12-17T05:15:47.089Z,30.97
2018-12-17T05:18:15.274Z,28.55
2018-12-17T05:20:43.413Z,27.85
2018-12-17T05:23:11.503Z,29.10
2018-12-17T05:25:39.657Z,26.80
2018-12-17T05:28:07.857Z,27.32
2018-12-17T05:30:35.949Z,28.95
2018-12-17T05:33:04.578Z,26.80
2018-12-17T05:35:32.741Z,28.52
2018-12-17T05:38:00.841Z,29.15
2018-12-17T05:40:28.929Z,28.98
2018-12-17T05:42:57.053Z,27.93
2018-12-17T05:45:25.155Z,29.45
2018-12-17T05:47:53.629Z,29.63
2018-12-17T05:50:21.723Z,26.65
2018-12-17T05:52:49.900Z,31.10
2018-12-17T05:55:18.157Z,27.85
2018-12-17T05:57:46.278Z,31.62
2018-12-17T06:00:14.377Z,31.02
2018-12-17T06:02:42.487Z,33.42
2018-12-17T06:05:10.743Z,33.00
2018-12-17T06:07:38.827Z,33.45
2018-12-17T06:10:07.155Z,33.63
2018-12-17T06:12:35.320Z,29.40
2018-12-17T06:15:03.729Z,33.58
2018-12-17T06:17:31.818Z,29.72
2018-12-17T06:19:59.901Z,30.20
2018-12-17T06:22:27.988Z,31.95
2018-12-17T06:24:56.080Z,32.05
2018-12-17T06:27:24.303Z,31.25
2018-12-17T06:29:52.396Z,36.15
2018-12-17T06:32:20.633Z,37.25
2018-12-17T06:34:48.782Z,39.42
2018-12-17T06:37:16.861Z,34.58
2018-12-17T06:39:44.961Z,31.17
2018-12-17T06:42:13.072Z,33.40
2018-12-17T06:44:41.183Z,34.03
2018-12-17T06:47:09.361Z,36.17
2018-12-17T06:49:37.461Z,34.73
2018-12-17T06:52:05.625Z,33.25
2018-12-17T06:54:33.786Z,34.90
2018-12-17T06:57:01.944Z,34.05
2018-12-17T06:59:30.529Z,33.70
2018-12-17T07:01:58.898Z,34.55
2018-12-17T07:04:27.003Z,35.10
2018-12-17T07:06:55.102Z,32.63
2018-12-17T07:09:23.332Z,35.35
2018-12-17T07:11:51.493Z,35.30
2018-12-17T07:14:19.665Z,36.90
2018-12-17T07:16:47.865Z,35.20
2018-12-17T07:19:16.006Z,35.33
2018-12-17T07:21:44.218Z,37.73
2018-12-17T07:24:12.313Z,38.98
2018-12-17T07:26:40.412Z,37.75
2018-12-17T07:29:08.501Z,35.30
2018-12-17T07:31:36.600Z,39.00
2018-12-17T07:34:04.842Z,37.10
2018-12-17T07:36:32.954Z,35.45
2018-12-17T07:39:10.649Z,39.58
2018-12-17T07:41:39.553Z,39.55
2018-12-17T07:44:07.781Z,39.90
2018-12-17T07:46:35.957Z,36.50
2018-12-17T07:49:04.307Z,37.45
2018-12-17T07:51:32.421Z,41.33
2018-12-17T07:54:00.607Z,38.60
2018-12-17T07:56:28.757Z,41.85
2018-12-17T07:58:57.979Z,38.70
2018-12-17T08:01:26.088Z,35.98
2018-12-17T08:03:54.256Z,40.80
2018-12-17T08:06:22.382Z,41.40
2018-12-17T08:08:50.901Z,39.53
2018-12-17T08:11:19.025Z,42.05
2018-12-17T08:13:47.281Z,37.85
2018-12-17T08:16:15.424Z,41.28
2018-12-17T08:18:43.538Z,39.08
2018-12-17T08:21:11.753Z,40.95
2018-12-17T08:23:39.873Z,40.20
2018-12-17T08:26:07.958Z,40.78
2018-12-17T08:28:36.061Z,42.15
2018-12-17T08:31:04.329Z,39.60
2018-12-17T08:33:32.487Z,41.77
2018-12-17T08:36:00.612Z,40.70
2018-12-17T08:38:28.729Z,37.60
2018-12-17T08:40:56.817Z,38.10
2018-12-17T08:43:24.946Z,36.65
2018-12-17T08:45:53.026Z,44.40
2018-12-17T08:48:21.141Z,33.40
2018-12-17T08:50:49.269Z,35.83
2018-12-17T08:53:17.556Z,35.30
2018-12-17T08:55:45.722Z,32.65
2018-12-17T08:58:14.186Z,33.28
2018-12-17T09:00:42.280Z,32.05
2018-12-17T09:03:10.389Z,31.23
2018-12-17T09:05:38.573Z,31.90
2018-12-17T09:08:06.797Z,30.60
2018-12-17T09:10:34.896Z,30.10
2018-12-17T09:13:03.085Z,29.65
2018-12-17T09:15:31.168Z,28.65
2018-12-17T09:17:59.286Z,28.83
2018-12-17T09:20:27.375Z,25.50
2018-12-17T09:22:55.573Z,25.75
2018-12-17T09:25:25.363Z,38.02
2018-12-17T09:27:53.553Z,23.73
2018-12-17T09:30:21.746Z,39.83
2018-12-17T09:32:49.832Z,58.33
2018-12-17T09:35:17.922Z,26.60
2018-12-17T09:37:46.041Z,31.87
2018-12-17T09:40:14.610Z,31.15
2018-12-17T09:42:42.707Z,23.20
2018-12-17T09:45:10.993Z,24.80
2018-12-17T09:47:39.093Z,23.83
2018-12-17T09:50:07.855Z,22.02
2018-12-17T09:52:36.042Z,26.55
2018-12-17T09:55:04.389Z,25.43
2018-12-17T09:57:32.515Z,24.05
2018-12-17T10:00:00.612Z,24.47
2018-12-17T10:02:28.757Z,24.60
2018-12-17T10:04:56.840Z,22.37
2018-12-17T10:07:30.394Z,24.02
2018-12-17T10:09:59.663Z,22.25
2018-12-17T10:12:27.812Z,25.62
2018-12-17T10:14:55.918Z,22.80
2018-12-17T10:17:24.664Z,24.75
2018-12-17T10:19:52.739Z,24.40
2018-12-17T10:22:20.831Z,24.30
2018-12-17T10:24:49.063Z,21.80
2018-12-17T10:27:17.366Z,23.73
2018-12-17T10:29:45.600Z,24.27
2018-12-17T10:32:13.821Z,25.00
2018-12-17T10:34:42.060Z,21.77
2018-12-17T10:37:10.334Z,21.02
2018-12-17T10:39:38.491Z,20.20
2018-12-17T10:42:06.610Z,23.00
2018-12-17T10:44:34.927Z,23.73
2018-12-17T10:47:03.234Z,23.57
2018-12-17T10:49:31.353Z,23.52
2018-12-17T10:52:00.046Z,22.87
2018-12-17T10:54:28.238Z,21.60
2018-12-17T10:56:56.347Z,22.02
2018-12-17T10:59:24.433Z,22.60
2018-12-17T11:01:59.567Z,21.30
2018-12-17T11:04:33.208Z,23.57
2018-12-17T11:07:01.521Z,20.40
2018-12-17T11:09:29.737Z,21.42
2018-12-17T11:11:57.843Z,20.70
2018-12-17T11:14:25.967Z,20.68
2018-12-17T11:16:54.143Z,21.68
2018-12-17T11:19:22.247Z,19.25
2018-12-17T11:21:56.898Z,21.27
2018-12-17T11:24:24.994Z,19.95
2018-12-17T11:26:53.557Z,19.65
2018-12-17T11:29:21.645Z,18.00
2018-12-17T11:34:24.890Z,21.42
2018-12-17T11:36:53.080Z,19.65
2018-12-17T11:39:21.208Z,20.25
2018-12-17T11:41:49.293Z,21.02
2018-12-17T11:44:17.385Z,20.10
2018-12-17T11:46:45.540Z,19.42
2018-12-17T11:49:13.638Z,18.25
2018-12-17T11:51:41.789Z,19.95
2018-12-17T11:54:09.897Z,18.15
2018-12-17T11:56:49.412Z,19.80
2018-12-17T11:59:17.510Z,20.00
2018-12-17T12:01:45.688Z,20.62
2018-12-17T12:04:13.766Z,20.82
2018-12-17T12:06:42.118Z,21.07
2018-12-17T12:09:12.274Z,19.23
2018-12-17T12:11:40.434Z,19.98
2018-12-17T12:14:08.597Z,19.15
2018-12-17T12:16:36.735Z,21.10
2018-12-17T12:19:04.996Z,21.97
2018-12-17T12:21:41.879Z,21.00
2018-12-17T12:24:22.750Z,21.97
2018-12-17T12:26:50.852Z,21.77
2018-12-17T12:29:19.979Z,20.80
2018-12-17T12:31:48.903Z,23.52
2018-12-17T12:34:16.999Z,22.35
2018-12-17T12:36:45.713Z,23.77
2018-12-17T12:39:15.622Z,22.87
2018-12-17T12:41:43.759Z,20.37
2018-12-17T12:44:12.853Z,20.62
2018-12-17T12:46:41.086Z,20.68
2018-12-17T12:49:09.305Z,19.77
2018-12-17T12:51:37.695Z,20.23
2018-12-17T12:54:06.468Z,20.10
2018-12-17T12:56:34.665Z,19.85
2018-12-17T12:59:02.879Z,21.17
2018-12-17T13:01:30.989Z,21.07
2018-12-17T13:03:59.078Z,18.95
2018-12-17T13:06:27.197Z,20.57
2018-12-17T13:08:55.302Z,20.37
2018-12-17T13:11:23.453Z,21.15
2018-12-17T13:13:51.638Z,19.27
2018-12-17T13:16:19.767Z,20.27
2018-12-17T13:18:47.877Z,19.35
2018-12-17T13:21:15.997Z,17.70
2018-12-17T13:23:44.396Z,18.70
2018-12-17T13:26:12.487Z,19.42
2018-12-17T13:28:40.688Z,18.95
2018-12-17T13:31:14.578Z,19.50
2018-12-17T13:33:40.407Z,17.77
2018-12-17T13:36:08.728Z,18.70
2018-12-17T13:38:40.438Z,20.90
2018-12-17T13:41:09.209Z,19.02
2018-12-17T13:43:37.312Z,19.65
2018-12-17T13:46:05.467Z,21.02
2018-12-17T13:48:33.686Z,20.20
2018-12-17T13:51:07.222Z,19.32
2018-12-17T13:53:35.326Z,20.50
2018-12-17T13:56:04.185Z,20.80
2018-12-17T13:58:45.735Z,20.23
2018-12-17T14:06:18.471Z,20.37
2018-12-17T14:08:55.068Z,19.80
2018-12-17T14:11:33.645Z,24.15
2018-12-17T14:14:16.793Z,21.42
2018-12-17T14:17:04.938Z,22.87
2018-12-17T14:22:57.354Z,20.75
2018-12-17T14:25:35.868Z,22.67
2018-12-17T14:28:26.565Z,21.87
2018-12-17T15:08:32.913Z,18.30
2018-12-17T15:11:08.120Z,19.00
2018-12-17T15:27:22.460Z,15.10
2018-12-17T15:32:34.243Z,14.95
2018-12-17T15:35:02.392Z,16.05
2018-12-17T15:37:31.092Z,14.80
2018-12-17T15:39:59.477Z,14.80
2018-12-17T15:42:27.655Z,16.30
2018-12-17T15:44:55.843Z,15.25
2018-12-17T15:47:24.834Z,15.20
2018-12-17T15:49:53.042Z,17.25
2018-12-17T15:52:21.302Z,17.17
2018-12-17T15:54:49.517Z,16.12
2018-12-17T15:57:17.709Z,16.35
2018-12-17T15:59:46.233Z,16.70
2018-12-17T16:02:14.329Z,16.85
2018-12-17T16:04:42.421Z,16.05
2018-12-17T16:07:10.519Z,17.27
2018-12-17T16:09:38.612Z,16.60
2018-12-17T16:12:06.816Z,16.37
2018-12-17T16:14:36.244Z,17.05
2018-12-17T16:17:04.469Z,15.45
2018-12-17T16:19:33.717Z,15.32
2018-12-17T16:22:02.070Z,16.93
2018-12-17T16:27:27.228Z,14.87
2018-12-17T16:29:55.791Z,16.15
2018-12-17T16:32:23.894Z,15.40
2018-12-17T16:34:52.162Z,15.35
2018-12-17T16:37:20.362Z,16.17
2018-12-17T16:39:48.502Z,15.40
2018-12-17T16:42:16.697Z,16.45
2018-12-17T16:44:44.986Z,18.85
2018-12-17T16:47:13.182Z,18.07
2018-12-17T16:49:41.371Z,17.10
2018-12-17T16:52:09.728Z,19.27
2018-12-17T16:54:38.058Z,17.55
2018-12-17T16:57:06.330Z,17.62
2018-12-17T16:59:34.978Z,17.57
2018-12-17T17:02:04.675Z,19.00
2018-12-17T17:04:32.978Z,19.25
2018-12-17T17:07:01.645Z,20.35
2018-12-17T17:09:29.763Z,18.95
2018-12-17T17:11:58.368Z,17.80
2018-12-17T17:14:26.481Z,18.62
2018-12-17T17:16:54.767Z,18.95
2018-12-17T17:19:22.969Z,19.95
2018-12-17T17:21:51.126Z,19.90
2018-12-17T17:24:19.217Z,19.70
2018-12-17T17:26:47.574Z,18.52
2018-12-17T17:29:15.782Z,18.10
2018-12-17T17:31:43.952Z,20.15
2018-12-17T17:34:12.063Z,20.60
2018-12-17T17:36:40.165Z,20.10
2018-12-17T17:39:09.862Z,22.13
2018-12-17T17:41:38.130Z,20.65
2018-12-17T17:44:06.385Z,21.20
2018-12-17T17:46:34.658Z,19.45
2018-12-17T17:49:02.962Z,20.82
2018-12-17T17:51:31.203Z,20.68
2018-12-17T17:53:59.455Z,20.25
2018-12-17T17:56:27.651Z,21.48
2018-12-17T17:58:55.993Z,19.30
2018-12-17T18:01:24.217Z,20.77
2018-12-17T18:03:52.514Z,18.60
2018-12-17T18:06:20.734Z,20.97
2018-12-17T18:08:48.943Z,21.57
2018-12-17T18:11:17.157Z,21.17
2018-12-17T18:13:45.365Z,21.52
2018-12-17T18:16:13.607Z,19.62
2018-12-17T18:18:41.948Z,18.85
2018-12-17T18:21:10.179Z,21.68
2018-12-17T18:23:38.377Z,22.95
2018-12-17T18:26:06.643Z,20.15
2018-12-17T18:28:34.944Z,21.15
2018-12-17T18:31:03.318Z,21.25
2018-12-17T18:33:31.518Z,19.60
2018-12-17T18:35:59.827Z,22.30
2018-12-17T18:38:28.026Z,19.55
2018-12-17T18:40:56.300Z,20.17
2018-12-17T18:43:24.496Z,22.75
2018-12-17T18:45:52.783Z,19.98
2018-12-17T18:48:21.175Z,19.95
2018-12-17T18:50:49.409Z,19.80
2018-12-17T18:53:17.610Z,20.95
2018-12-17T18:55:45.869Z,22.93
2018-12-17T18:58:14.161Z,18.65
2018-12-17T19:00:42.965Z,21.90
2018-12-17T19:03:11.171Z,18.95
2018-12-17T19:05:39.453Z,21.17
2018-12-17T19:08:07.666Z,19.42
2018-12-17T19:10:41.294Z,19.50
2018-12-17T19:13:09.490Z,21.40
2018-12-17T19:15:37.845Z,20.75
2018-12-17T19:18:06.068Z,18.98
2018-12-17T19:20:34.258Z,19.40
2018-12-17T19:23:02.473Z,19.65
2018-12-17T19:25:30.798Z,19.70
2018-12-17T19:27:59.005Z,20.10
2018-12-17T19:30:27.195Z,20.80
2018-12-17T19:32:55.354Z,21.27
2018-12-17T19:35:23.558Z,21.40
2018-12-17T19:37:51.758Z,19.87
2018-12-17T19:40:19.967Z,19.85
2018-12-17T19:42:48.194Z,20.05
2018-12-17T19:45:16.497Z,19.55
2018-12-17T19:47:44.714Z,20.40
2018-12-17T19:50:12.938Z,19.98
2018-12-17T19:52:42.071Z,20.25
2018-12-17T19:55:10.315Z,21.37
2018-12-17T19:57:38.965Z,18.40
2018-12-17T20:00:08.787Z,19.25
2018-12-17T20:03:11.425Z,20.70
2018-12-17T20:13:19.487Z,26.70
2018-12-17T20:16:04.612Z,21.85
2018-12-17T20:18:57.048Z,18.50
2018-12-17T20:21:38.345Z,18.60
2018-12-17T20:24:23.125Z,19.80
2018-12-17T20:26:57.806Z,20.80
2018-12-17T20:33:18.132Z,18.73
2018-12-17T20:35:56.702Z,19.25
2018-12-17T20:59:03.337Z,16.60
2018-12-17T21:01:33.674Z,16.70
2018-12-17T21:04:42.122Z,16.75
2018-12-17T21:07:34.268Z,15.03
2018-12-17T21:10:13.070Z,14.78
2018-12-17T21:12:46.708Z,15.75
2018-12-17T21:15:26.671Z,14.40
2018-12-17T21:18:08.202Z,16.25
2018-12-17T21:21:19.146Z,15.80
2018-12-17T21:24:09.610Z,15.35
2018-12-17T21:26:50.446Z,15.78
2018-12-17T21:29:28.260Z,13.60
2018-12-17T21:32:00.216Z,14.40
2018-12-17T21:34:52.597Z,14.20
2018-12-17T21:37:29.832Z,15.80
2018-12-17T21:40:04.108Z,13.53
2018-12-17T21:42:40.359Z,15.72
2018-12-17T21:45:14.229Z,14.78
2018-12-17T21:47:56.570Z,15.35
2018-12-17T21:50:32.762Z,13.88
2018-12-17T21:53:07.329Z,15.78
2018-12-17T21:55:47.872Z,14.90
2018-12-17T21:58:35.957Z,14.07
2018-12-17T22:33:29.514Z,13.03
2018-12-17T22:36:12.319Z,12.78
2018-12-17T22:38:55.243Z,13.93
2018-12-17T22:41:45.009Z,13.95
2018-12-17T22:44:23.058Z,13.48
2018-12-17T22:46:58.205Z,12.25
2018-12-17T22:49:43.906Z,15.23
2018-12-17T22:52:27.123Z,12.60
2018-12-17T23:20:43.260Z,16.42
2018-12-17T23:23:11.831Z,18.00
2018-12-17T23:25:45.434Z,17.10
2018-12-17T23:42:09.186Z,17.57
2018-12-17T23:44:37.841Z,16.93
2018-12-17T23:47:09.167Z,16.97
2018-12-17T23:52:30.895Z,17.70
2018-12-17T23:55:03.251Z,16.45
2018-12-17T23:57:38.812Z,16.45
